Time;durP1;ratioP1;P1;durP2;ratioP2;P2;SDS_P1;SDS_P2;PMS_P1;PMS_P2;Temp;Humidity;BMP_temperature;BMP_pressure;BME280_temperature;BME280_humidity;BME280_pressure;Samples;Min_cycle;Max_cycle;Signal;HPM_P1;HPM_P2
2022/04/23 00:03:34;;;;;;;29.70;20.10;;;;;;;4.79;75.75;97901.81;220169;1275;307268;-71
2022/04/23 00:08:49;;;;;;;32.10;22.00;;;;;;;4.76;75.99;97902.66;220871;1273;25390;-72
2022/04/23 00:13:54;;;;;;;33.60;22.30;;;;;;;4.74;76.11;97904.53;220456;1274;22799;-71
2022/04/23 00:18:59;;;;;;;30.90;19.90;;;;;;;4.67;76.17;97898.41;220465;1275;25323;-73
2022/04/23 00:24:05;;;;;;;27.90;18.40;;;;;;;4.57;75.94;97894.98;220680;1274;24282;-72
2022/04/23 00:29:11;;;;;;;25.80;17.40;;;;;;;4.44;76.09;97900.70;220437;1275;22561;-73
2022/04/23 00:34:17;;;;;;;27.40;18.30;;;;;;;4.32;76.32;97895.06;220663;1275;25429;-71
2022/04/23 00:39:21;;;;;;;31.60;20.60;;;;;;;4.21;76.30;97897.89;220681;1275;23055;-72
2022/04/23 00:44:27;;;;;;;39.40;24.80;;;;;;;4.11;76.54;97899.17;220335;1274;24529;-73
2022/04/23 00:49:29;;;;;;;32.80;23.00;;;;;;;4.05;76.62;97897.74;220751;1274;22572;-72
2022/04/23 00:54:34;;;;;;;29.20;19.60;;;;;;;3.99;76.90;97892.23;220453;1274;22559;-72
2022/04/23 00:59:54;;;;;;;30.60;20.90;;;;;;;3.99;77.05;97897.06;220617;1275;22628;-72
2022/04/23 01:04:56;;;;;;;29.60;19.70;;;;;;;4.00;77.26;97897.80;220894;1274;22559;-72
2022/04/23 01:10:01;;;;;;;28.30;18.20;;;;;;;4.05;77.44;97894.14;220599;1274;22600;-73
2022/04/23 01:15:09;;;;;;;27.60;19.10;;;;;;;4.17;77.57;97886.76;220501;1275;22609;-73
2022/04/23 01:20:22;;;;;;;26.60;17.20;;;;;;;4.34;77.68;97888.84;220624;1275;22564;-72
2022/04/23 01:25:33;;;;;;;25.90;18.20;;;;;;;4.45;77.32;97895.98;220594;1274;22564;-72
2022/04/23 01:30:36;;;;;;;25.60;17.20;;;;;;;4.53;77.35;97891.13;220663;1274;22569;-72
2022/04/23 01:35:40;;;;;;;26.80;17.70;;;;;;;4.61;77.06;97888.02;220604;1273;23201;-72
2022/04/23 01:40:42;;;;;;;28.30;17.90;;;;;;;4.66;77.16;97889.39;220688;1274;24339;-73
2022/04/23 01:45:46;;;;;;;26.60;17.70;;;;;;;4.64;76.65;97893.27;220688;1274;23189;-72
2022/04/23 01:50:50;;;;;;;29.70;18.20;;;;;;;4.59;76.67;97897.41;220779;1274;22729;-72
2022/04/23 01:55:55;;;;;;;31.40;19.70;;;;;;;4.50;76.47;97904.02;220821;1273;22582;-72
2022/04/23 02:00:59;;;;;;;30.00;17.90;;;;;;;4.38;76.45;97904.11;220602;1274;24214;-72
2022/04/23 02:06:05;;;;;;;25.70;16.10;;;;;;;4.22;76.30;97898.73;220707;1273;24265;-73
2022/04/23 02:11:07;;;;;;;26.10;15.60;;;;;;;4.08;76.45;97899.17;220671;1273;24212;-72
2022/04/23 02:16:09;;;;;;;23.90;16.30;;;;;;;3.94;76.51;97903.96;220842;1273;22579;-70
2022/04/23 02:21:15;;;;;;;26.70;16.80;;;;;;;3.78;76.27;97904.66;220628;1274;24442;-73
2022/04/23 02:26:35;;;;;;;20.90;14.50;;;;;;;3.58;76.31;97912.68;220817;1273;24228;-72
2022/04/23 02:31:57;;;;;;;23.60;14.60;;;;;;;3.41;76.77;97908.16;220550;1273;22583;-72
2022/04/23 02:37:20;;;;;;;19.50;13.60;;;;;;;3.29;76.97;97908.89;220607;1273;23043;-72
2022/04/23 02:42:23;;;;;;;20.00;14.00;;;;;;;3.18;77.12;97912.56;221120;1274;23110;-71
2022/04/23 02:47:43;;;;;;;21.90;13.10;;;;;;;3.07;77.16;97917.35;220754;1273;22646;-71
2022/04/23 02:53:07;;;;;;;22.40;14.20;;;;;;;2.95;77.19;97920.27;220798;1273;22570;-71
2022/04/23 02:58:14;;;;;;;19.50;13.20;;;;;;;2.86;77.41;97919.88;220843;1274;22589;-71
2022/04/23 03:03:42;;;;;;;20.40;13.50;;;;;;;2.75;77.63;97919.94;221049;1273;27429;-72
2022/04/23 03:08:48;;;;;;;20.80;13.90;;;;;;;2.64;77.61;97924.70;220462;1273;26387;-72
2022/04/23 03:13:51;;;;;;;20.80;13.40;;;;;;;2.49;77.54;97930.38;220591;1273;23283;-71
2022/04/23 03:18:53;;;;;;;21.70;13.30;;;;;;;2.34;77.61;97932.40;220561;1273;25250;-72
2022/04/23 03:23:57;;;;;;;18.90;13.10;;;;;;;2.20;77.72;97936.81;220496;1273;25314;-72
2022/04/23 03:29:00;;;;;;;23.40;14.00;;;;;;;2.09;77.84;97942.12;220755;1273;23389;-71
2022/04/23 03:34:03;;;;;;;20.40;13.60;;;;;;;2.00;78.14;97944.38;220338;1274;22640;-73
2022/04/23 03:39:05;;;;;;;20.40;13.80;;;;;;;1.91;78.32;97942.35;220492;1274;22535;-73
2022/04/23 03:44:09;;;;;;;24.40;16.80;;;;;;;1.84;78.31;97947.15;220609;1273;22544;-70
2022/04/23 03:49:11;;;;;;;24.30;17.20;;;;;;;1.79;78.57;97950.76;220565;1273;22561;-72
2022/04/23 03:54:21;;;;;;;27.60;18.20;;;;;;;1.75;78.66;97949.93;220711;1273;24420;-72
2022/04/23 03:59:23;;;;;;;24.90;16.30;;;;;;;1.75;78.93;97948.25;220873;1273;24238;-73
2022/04/23 04:04:42;;;;;;;25.20;16.20;;;;;;;1.74;78.90;97946.60;219128;1273;22605;-71
2022/04/23 04:09:48;;;;;;;23.00;16.00;;;;;;;1.73;79.00;97949.70;220503;1274;24207;-72
2022/04/23 04:14:57;;;;;;;25.70;16.50;;;;;;;1.74;79.14;97950.34;220354;1273;24258;-72
2022/04/23 04:20:07;;;;;;;27.40;17.50;;;;;;;1.78;79.43;97956.30;220318;1274;25353;-72
2022/04/23 04:25:12;;;;;;;24.00;15.70;;;;;;;1.86;79.31;97957.48;220688;1273;22559;-70
2022/04/23 04:30:15;;;;;;;22.20;14.30;;;;;;;1.93;79.56;97963.24;220856;1273;22578;-72
2022/04/23 04:35:27;;;;;;;23.80;16.40;;;;;;;1.96;79.22;97966.02;220601;1273;22574;-72
2022/04/23 04:40:30;;;;;;;22.60;15.00;;;;;;;2.00;79.05;97969.16;220554;1273;22588;-71
2022/04/23 04:45:32;;;;;;;24.30;16.70;;;;;;;2.09;79.45;97968.60;220530;1273;22540;-72
2022/04/23 04:50:35;;;;;;;24.90;15.80;;;;;;;2.18;79.48;97966.71;220268;1276;22759;-72
2022/04/23 04:55:41;;;;;;;26.90;16.50;;;;;;;2.33;79.81;97973.16;220564;1274;24230;-72
2022/04/23 05:00:46;;;;;;;24.60;16.90;;;;;;;2.55;80.07;97974.45;220546;1273;22619;-72
2022/04/23 05:05:51;;;;;;;25.10;17.20;;;;;;;2.83;80.31;97975.52;220655;1273;22581;-72
2022/04/23 05:10:53;;;;;;;26.20;18.10;;;;;;;3.10;80.20;97977.70;220683;1274;26042;-72
2022/04/23 05:15:59;;;;;;;28.70;19.90;;;;;;;3.32;79.85;97968.35;220797;1273;25370;-72
2022/04/23 05:21:05;;;;;;;30.00;20.00;;;;;;;3.54;79.63;97971.31;220573;1273;25323;-72
2022/04/23 05:26:09;;;;;;;28.30;19.60;;;;;;;3.75;79.56;97972.14;220547;1273;24389;-74
2022/04/23 05:31:11;;;;;;;32.70;20.90;;;;;;;3.95;79.31;97975.45;220564;1273;22560;-73
2022/04/23 05:36:14;;;;;;;29.30;19.80;;;;;;;4.17;79.04;97976.73;220594;1273;22580;-73
2022/04/23 05:41:17;;;;;;;27.30;18.70;;;;;;;4.38;78.98;97980.33;220443;1274;22577;-72
2022/04/23 05:46:21;;;;;;;28.60;18.60;;;;;;;4.57;78.88;97983.95;220416;1273;22853;-72
2022/04/23 05:51:30;;;;;;;30.70;20.50;;;;;;;4.78;78.43;97994.90;220704;1273;24242;-72
2022/04/23 05:56:32;;;;;;;32.40;20.60;;;;;;;4.99;78.14;97995.80;220699;1273;23204;-71
2022/04/23 06:01:34;;;;;;;30.40;17.90;;;;;;;5.20;78.03;97993.75;220352;1273;24391;-73
2022/04/23 06:06:37;;;;;;;21.40;15.40;;;;;;;5.41;77.92;97992.43;220525;1273;25462;-72
2022/04/23 06:11:39;;;;;;;25.50;16.20;;;;;;;5.65;77.76;97997.95;220608;1273;22603;-72
2022/04/23 06:16:42;;;;;;;29.10;17.00;;;;;;;5.90;77.38;97991.99;220553;1273;25452;-72
2022/04/23 06:21:45;;;;;;;26.50;17.70;;;;;;;6.11;76.59;97990.80;220736;1273;22605;-73
2022/04/23 06:26:48;;;;;;;25.50;20.10;;;;;;;6.34;76.31;97990.25;220497;1273;22537;-72
2022/04/23 06:31:50;;;;;;;22.80;16.80;;;;;;;6.55;75.74;97996.70;220829;1273;22542;-73
2022/04/23 06:37:11;;;;;;;20.30;15.40;;;;;;;6.75;75.30;97993.95;220724;1273;25335;-73
2022/04/23 06:42:14;;;;;;;18.50;14.90;;;;;;;6.91;74.54;97993.80;221233;1273;22572;-73
2022/04/23 06:47:21;;;;;;;16.70;12.80;;;;;;;7.11;74.45;97986.59;221122;1273;22687;-71
2022/04/23 06:52:23;;;;;;;14.80;12.00;;;;;;;7.31;73.71;97990.77;221009;1273;23933;-72
2022/04/23 06:57:44;;;;;;;15.20;12.60;;;;;;;7.55;73.17;97992.17;220632;1273;22735;-72
2022/04/23 07:02:46;;;;;;;17.30;12.30;;;;;;;7.82;72.75;97986.63;221371;1273;22618;-72
2022/04/23 07:08:01;;;;;;;14.40;11.10;;;;;;;8.08;72.43;97987.67;220959;1273;22963;-71
2022/04/23 07:13:04;;;;;;;15.40;10.80;;;;;;;8.31;71.58;97995.11;220922;1273;23962;-72
2022/04/23 07:18:08;;;;;;;14.30;10.20;;;;;;;8.54;70.92;97989.77;220922;1273;23169;-72
2022/04/23 07:28:31;;;;;;;8.40;7.50;;;;;;;9.01;69.69;97990.26;220652;1273;25320;-72
2022/04/23 07:39:00;;;;;;;10.30;7.70;;;;;;;9.53;68.08;97982.44;220619;1274;25439;-72
2022/04/23 07:44:04;;;;;;;8.90;7.20;;;;;;;9.80;67.81;97983.95;220595;1273;22712;-72
2022/04/23 07:49:09;;;;;;;6.70;6.00;;;;;;;10.17;67.06;97983.52;220637;1273;22556;-72
2022/04/23 07:54:14;;;;;;;6.90;6.20;;;;;;;10.34;65.49;97981.92;220757;1273;24262;-71
2022/04/23 07:59:31;;;;;;;7.10;6.30;;;;;;;10.52;64.94;97979.02;220897;1273;24288;-72
2022/04/23 08:04:51;;;;;;;6.30;5.70;;;;;;;10.80;64.71;97969.88;220429;1273;22611;-71
2022/04/23 08:09:53;;;;;;;7.10;5.90;;;;;;;10.99;63.51;97969.73;220608;1274;24440;-72
2022/04/23 08:14:58;;;;;;;6.40;5.60;;;;;;;11.07;62.86;97968.71;220593;1273;26397;-71
2022/04/23 08:20:17;;;;;;;8.00;5.30;;;;;;;11.20;62.41;97969.79;220734;1273;25244;-73
2022/04/23 08:25:20;;;;;;;5.40;4.50;;;;;;;11.31;61.85;97962.09;220444;1274;23227;-71
2022/04/23 08:30:34;;;;;;;6.30;4.70;;;;;;;11.42;61.09;97961.45;220430;1274;22801;-72
2022/04/23 08:35:50;;;;;;;6.60;5.00;;;;;;;11.51;60.36;97955.08;220506;1273;24345;-71
2022/04/23 08:41:04;;;;;;;6.50;4.70;;;;;;;11.65;60.23;97951.11;220800;1273;22686;-72
2022/04/23 08:46:09;;;;;;;6.20;5.00;;;;;;;11.77;59.71;97943.00;220922;1273;22579;-71
2022/04/23 08:51:20;;;;;;;5.90;4.60;;;;;;;11.94;59.11;97938.43;220634;1273;22554;-71
2022/04/23 08:56:22;;;;;;;5.90;5.00;;;;;;;11.93;57.57;97939.46;220839;1273;22568;-72
2022/04/23 09:01:31;;;;;;;6.40;4.90;;;;;;;12.06;58.08;97939.98;220614;1273;22633;-72
2022/04/23 09:06:39;;;;;;;6.10;5.20;;;;;;;12.24;57.83;97939.95;220979;1273;24732;-72
2022/04/23 09:11:46;;;;;;;6.20;5.10;;;;;;;12.41;57.34;97937.97;221259;1273;23180;-71
2022/04/23 09:27:46;;;;;;;5.00;4.30;;;;;;;12.77;55.39;97933.39;220882;1273;23403;-71
2022/04/23 09:32:57;;;;;;;3.80;3.40;;;;;;;13.08;54.87;97927.25;221347;1273;25321;-71
2022/04/23 09:38:25;;;;;;;4.70;4.20;;;;;;;13.24;53.95;97925.95;220562;1273;25391;-72
2022/04/23 09:43:30;;;;;;;4.90;4.10;;;;;;;13.34;52.37;97930.62;220659;1273;23228;-72
2022/04/23 09:48:33;;;;;;;4.90;4.10;;;;;;;13.36;52.06;97925.95;221179;1273;22686;-72
2022/04/23 09:53:36;;;;;;;4.00;3.60;;;;;;;13.72;52.40;97930.80;220943;1273;22665;-72
2022/04/23 09:58:49;;;;;;;7.10;4.50;;;;;;;14.25;52.53;97925.93;220791;1273;22708;-72
2022/04/23 10:03:53;;;;;;;4.90;4.50;;;;;;;14.38;51.55;97923.98;220650;1273;22553;-71
2022/04/23 10:08:59;;;;;;;4.80;4.40;;;;;;;14.12;51.31;97924.73;221052;1273;23421;-72
2022/04/23 10:14:22;;;;;;;5.00;4.50;;;;;;;14.11;51.97;97922.61;220807;1273;23419;-72
2022/04/23 10:19:29;;;;;;;4.90;4.50;;;;;;;14.49;51.98;97928.14;221027;1273;26447;-72
2022/04/23 10:24:39;;;;;;;5.10;4.50;;;;;;;14.91;51.40;97921.17;220890;1273;22782;-71
2022/04/23 10:29:43;;;;;;;7.70;5.00;;;;;;;15.20;50.54;97922.13;220726;1273;22538;-71
2022/04/23 10:34:48;;;;;;;5.30;4.50;;;;;;;15.25;50.12;97916.42;220634;1273;23437;-71
2022/04/23 10:39:51;;;;;;;4.70;4.30;;;;;;;15.30;49.92;97921.13;220853;1273;25796;-71
2022/04/23 10:44:56;;;;;;;6.40;4.70;;;;;;;15.40;49.73;97915.17;220901;1273;22560;-72
2022/04/23 10:50:22;;;;;;;4.30;3.90;;;;;;;15.67;49.28;97918.11;220983;1273;24267;-72
2022/04/23 10:55:24;;;;;;;5.40;4.80;;;;;;;15.83;48.16;97919.71;220604;1273;22542;-73
2022/04/23 11:00:43;;;;;;;5.70;5.20;;;;;;;15.85;48.08;97920.09;220790;1273;25371;-73
2022/04/23 11:17:01;;;;;;;4.00;3.70;;;;;;;15.19;48.11;97920.48;220450;1274;23066;-72
2022/04/23 11:22:04;;;;;;;4.00;3.70;;;;;;;15.48;47.60;97914.62;220627;1273;22535;-72
2022/04/23 11:27:08;;;;;;;4.30;3.90;;;;;;;15.91;47.52;97913.66;220746;1274;22584;-73
2022/04/23 11:32:28;;;;;;;4.60;4.20;;;;;;;16.12;46.73;97911.08;220546;1273;23425;-73
2022/04/23 11:37:39;;;;;;;4.40;4.00;;;;;;;15.97;46.01;97914.61;220667;1273;22615;-74
2022/04/23 11:42:43;;;;;;;4.00;3.60;;;;;;;15.94;45.82;97913.59;220729;1273;22538;-73
2022/04/23 11:47:46;;;;;;;3.50;3.20;;;;;;;16.03;45.76;97911.08;220445;1273;22551;-73
2022/04/23 11:53:10;;;;;;;4.70;4.30;;;;;;;16.22;45.84;97906.78;220384;1274;24232;-74
2022/04/23 11:58:32;;;;;;;4.10;3.70;;;;;;;16.22;45.49;97912.41;220583;1273;25424;-72
2022/04/23 12:03:58;;;;;;;3.50;3.20;;;;;;;16.23;45.70;97909.83;212845;1274;10364008;-73
2022/04/23 12:09:19;;;;;;;4.00;3.70;;;;;;;16.65;45.09;97905.06;220534;1273;23282;-73
2022/04/23 12:14:45;;;;;;;4.50;4.10;;;;;;;16.76;44.53;97901.38;220756;1273;22682;-73
2022/04/23 12:20:04;;;;;;;4.50;4.10;;;;;;;16.78;44.67;97901.49;220533;1274;25410;-73
2022/04/23 12:25:30;;;;;;;4.30;3.90;;;;;;;16.77;44.29;97899.94;220613;1273;22861;-72
2022/04/23 12:41:21;;;;;;;4.40;4.00;;;;;;;17.09;43.08;97876.70;220346;1274;22566;-73
2022/04/23 12:46:24;;;;;;;4.20;3.80;;;;;;;17.21;42.77;97877.91;220462;1276;22563;-73
2022/04/23 12:51:27;;;;;;;4.90;3.70;;;;;;;16.96;42.28;97875.27;220364;1274;22614;-73
2022/04/23 12:56:34;;;;;;;4.10;3.80;;;;;;;16.71;43.05;97869.19;220621;1274;24358;-71
2022/04/23 13:01:39;;;;;;;4.00;3.60;;;;;;;16.58;43.36;97852.98;220631;1273;22562;-73
2022/04/23 13:12:27;;;;;;;3.60;3.30;;;;;;;16.33;42.10;97845.77;220474;1273;22808;-73
2022/04/23 13:17:30;;;;;;;3.20;3.00;;;;;;;16.24;42.22;97840.04;220765;1273;22595;-73
2022/04/23 13:22:33;;;;;;;4.10;3.70;;;;;;;16.23;42.57;97834.01;220447;1274;22545;-73
2022/04/23 13:27:36;;;;;;;4.60;4.20;;;;;;;16.27;42.97;97842.89;220504;1275;22602;-72
2022/04/23 13:32:39;;;;;;;4.00;3.60;;;;;;;16.18;42.80;97834.13;220367;1276;23065;-73
2022/04/23 13:37:43;;;;;;;3.80;3.50;;;;;;;16.12;42.87;97834.83;220306;1276;25392;-72
2022/04/23 13:42:45;;;;;;;3.50;3.20;;;;;;;16.05;42.28;97826.70;220438;1275;24229;-72
2022/04/23 13:47:52;;;;;;;3.80;3.50;;;;;;;16.12;42.72;97815.67;220433;1273;23808;-73
2022/04/23 13:52:57;;;;;;;4.40;4.00;;;;;;;16.30;42.59;97819.34;220824;1273;24240;-73
2022/04/23 13:57:59;;;;;;;4.50;4.10;;;;;;;16.17;42.67;97824.20;220611;1273;22708;-73
2022/04/23 14:14:01;;;;;;;3.90;3.60;;;;;;;15.50;42.93;97809.89;220812;1274;22755;-72
2022/04/23 14:19:03;;;;;;;4.10;3.70;;;;;;;15.64;42.98;97801.54;220859;1273;22540;-72
2022/04/23 14:24:06;;;;;;;4.00;3.70;;;;;;;15.79;42.59;97802.85;220740;1274;24223;-72
2022/04/23 14:29:09;;;;;;;3.80;3.50;;;;;;;16.03;42.73;97802.71;220599;1274;25442;-73
2022/04/23 14:34:20;;;;;;;3.80;3.50;;;;;;;16.31;42.36;97798.82;220206;1276;25321;-72
2022/04/23 14:39:23;;;;;;;4.50;4.10;;;;;;;16.47;41.99;97802.67;220290;1275;22576;-73
2022/04/23 14:44:25;;;;;;;4.00;3.70;;;;;;;16.24;41.18;97802.75;220409;1275;23100;-73
2022/04/23 14:49:36;;;;;;;4.50;3.50;;;;;;;15.86;41.29;97798.88;220399;1273;22583;-73
2022/04/23 14:54:39;;;;;;;6.00;5.00;;;;;;;15.54;41.62;97792.71;220315;1274;23459;-72
2022/04/23 14:59:44;;;;;;;5.20;4.70;;;;;;;15.33;41.95;97798.01;220884;1273;22548;-73
2022/04/23 15:04:46;;;;;;;4.60;4.20;;;;;;;15.27;42.71;97792.75;220423;1274;24329;-72
2022/04/23 15:09:49;;;;;;;4.70;4.00;;;;;;;15.54;43.36;97799.02;220557;1274;24763;-73
2022/04/23 15:14:54;;;;;;;4.90;4.40;;;;;;;15.94;43.24;97802.81;220536;1273;24377;-73
2022/04/23 15:19:56;;;;;;;4.00;3.60;;;;;;;16.18;42.54;97802.31;220394;1273;25414;-73
2022/04/23 15:25:03;;;;;;;3.80;3.50;;;;;;;16.21;41.83;97798.06;220375;1275;25159;-73
2022/04/23 15:30:06;;;;;;;4.30;3.90;;;;;;;16.15;41.67;97795.36;220251;1273;23042;-73
2022/04/23 15:35:10;;;;;;;4.30;3.90;;;;;;;15.92;41.81;97799.67;220343;1275;25368;-73
2022/04/23 15:40:35;;;;;;;5.10;4.50;;;;;;;15.67;42.49;97796.75;220503;1276;24230;-72
2022/04/23 15:45:51;;;;;;;4.70;4.20;;;;;;;15.49;42.86;97794.90;220561;1277;22939;-72
2022/04/23 15:50:54;;;;;;;5.10;4.60;;;;;;;15.40;42.98;97794.82;220956;1274;24222;-73
2022/04/23 15:55:59;;;;;;;4.60;4.20;;;;;;;15.45;43.38;97790.33;220863;1273;24357;-73
2022/04/23 16:01:43;;;;;;;10.30;8.90;;;;;;;15.71;43.77;97792.86;220671;1274;22634;-72
2022/04/23 16:07:20;;;;;;;5.10;4.60;;;;;;;16.01;42.98;97787.46;220699;1274;22621;-72
2022/04/23 16:12:23;;;;;;;5.60;5.00;;;;;;;16.12;42.74;97795.60;220873;1274;25526;-73
2022/04/23 16:17:26;;;;;;;7.20;5.40;;;;;;;16.00;42.91;97803.18;220931;1274;25303;-73
2022/04/23 16:22:44;;;;;;;6.00;5.40;;;;;;;15.69;43.26;97803.85;221247;1273;25978;-72
2022/04/23 16:28:36;;;;;;;7.10;6.00;;;;;;;15.29;43.81;97804.61;220941;1274;22564;-72
2022/04/23 16:33:58;;;;;;;7.30;5.90;;;;;;;15.03;44.28;97809.05;220426;1274;24305;-72
2022/04/23 16:50:05;;;;;;;7.10;6.40;;;;;;;14.50;45.18;97807.83;220733;1277;22562;-73
2022/04/23 16:55:11;;;;;;;10.30;8.10;;;;;;;14.36;45.35;97811.06;220295;1273;22733;-72
2022/04/23 17:00:20;;;;;;;8.70;7.10;;;;;;;14.24;45.59;97814.17;220754;1275;22547;-72
2022/04/23 17:05:52;;;;;;;7.80;6.20;;;;;;;14.10;45.75;97812.02;220353;1274;22583;-72
2022/04/23 17:11:04;;;;;;;;;;;;;;;;;;;;;
2022/04/23 17:16:27;;;;;;;10.10;8.20;;;;;;;13.81;46.18;97816.55;220578;1274;25663;-72
2022/04/23 17:21:56;;;;;;;12.40;8.00;;;;;;;13.64;46.50;97819.73;220529;1274;26383;-72
2022/04/23 17:27:12;;;;;;;10.00;7.80;;;;;;;13.44;46.88;97826.34;220642;1277;22587;-72
2022/04/23 17:32:21;;;;;;;8.50;6.30;;;;;;;13.21;47.45;97826.24;220246;1277;22605;-73
2022/04/23 17:37:32;;;;;;;8.00;7.00;;;;;;;12.97;47.75;97831.14;220316;1275;26530;-73
2022/04/23 17:42:50;;;;;;;12.50;6.50;;;;;;;12.73;48.06;97831.84;220435;1274;22540;-72
2022/04/23 17:47:53;;;;;;;9.90;7.70;;;;;;;12.47;48.68;97834.52;220218;1277;25408;-73
2022/04/23 17:53:09;;;;;;;17.70;14.90;;;;;;;12.21;48.98;97833.27;220084;1277;22609;-72
2022/04/23 17:58:18;;;;;;;11.10;8.90;;;;;;;11.97;49.10;97831.02;220053;1277;22663;-72
2022/04/23 18:08:45;;;;;;;13.50;9.90;;;;;;;11.54;49.60;97834.23;220467;1275;24406;-73
2022/04/23 18:13:51;;;;;;;14.20;10.50;;;;;;;11.36;49.95;97840.27;220561;1275;23820;-72
2022/04/23 18:18:54;;;;;;;13.10;10.80;;;;;;;11.19;50.16;97842.01;220577;1274;22874;-73
2022/04/23 18:23:58;;;;;;;15.70;11.90;;;;;;;11.03;50.35;97845.55;220514;1274;24222;-71
2022/04/23 18:29:06;;;;;;;20.60;14.90;;;;;;;10.88;50.72;97845.41;220423;1275;22552;-73
2022/04/23 18:34:09;;;;;;;21.30;15.60;;;;;;;10.72;50.96;97850.67;220272;1277;24277;-72
2022/04/23 18:39:11;;;;;;;26.60;17.60;;;;;;;10.58;51.17;97851.00;220149;1274;25380;-72
2022/04/23 18:44:16;;;;;;;27.50;17.80;;;;;;;10.44;51.36;97841.10;220191;1274;22685;-72
2022/04/23 18:49:54;;;;;;;24.50;17.10;;;;;;;10.33;51.73;97837.86;220258;1274;24267;-73
2022/04/23 18:54:58;;;;;;;27.60;17.70;;;;;;;10.22;51.91;97834.13;220370;1274;25513;-73
2022/04/23 19:00:04;;;;;;;25.90;17.60;;;;;;;10.12;52.15;97828.45;220494;1274;22803;-73
2022/04/23 19:05:11;;;;;;;33.00;20.70;;;;;;;10.02;52.30;97825.21;220385;1275;23113;-73
2022/04/23 19:10:41;;;;;;;31.60;20.40;;;;;;;9.94;52.52;97826.56;220866;1274;22553;-73
2022/04/23 19:15:44;;;;;;;25.10;17.20;;;;;;;9.84;52.76;97821.14;220817;1274;22571;-74
2022/04/23 19:31:35;;;;;;;39.20;26.70;;;;;;;9.60;53.51;97825.90;220276;1274;22803;-71
2022/04/23 19:36:41;;;;;;;41.60;27.30;;;;;;;9.46;53.93;97823.73;220625;1274;22597;-73
2022/04/23 19:41:43;;;;;;;47.30;30.70;;;;;;;9.26;54.34;97819.84;220619;1274;26377;-73
2022/04/23 19:47:06;;;;;;;49.70;31.00;;;;;;;9.07;54.70;97811.89;220646;1274;22559;-72
2022/04/23 19:52:18;;;;;;;54.70;32.80;;;;;;;8.92;55.09;97813.62;220664;1275;22920;-72
2022/04/23 19:57:22;;;;;;;52.60;31.50;;;;;;;8.80;55.38;97811.84;220383;1274;22668;-72
2022/04/23 20:02:24;;;;;;;53.80;33.10;;;;;;;8.66;55.74;97810.73;220712;1275;22551;-72
2022/04/23 20:07:31;;;;;;;47.00;30.30;;;;;;;8.53;55.92;97805.45;220451;1275;24384;-72
2022/04/23 20:12:35;;;;;;;42.10;28.40;;;;;;;8.42;56.37;97808.04;220358;1273;22582;-73
2022/04/23 20:17:39;;;;;;;45.60;29.80;;;;;;;8.32;56.71;97808.17;220588;1274;22574;-73
2022/04/23 20:23:05;;;;;;;;;;;;;;;8.24;56.93;97807.90;220783;1273;25530;-72
2022/04/23 20:28:11;;;;;;;47.30;30.90;;;;;;;8.12;57.09;97812.66;220769;1274;25355;-73
2022/04/23 20:33:13;;;;;;;52.70;32.50;;;;;;;8.00;57.54;97814.80;220282;1274;22714;-73
2022/04/23 20:38:36;;;;;;;61.00;36.30;;;;;;;7.86;57.94;97811.55;220347;1275;23618;-72
2022/04/23 20:43:38;;;;;;;61.70;37.80;;;;;;;7.70;57.99;97810.89;220274;1274;23124;-73
2022/04/23 20:48:42;;;;;;;59.60;38.00;;;;;;;7.57;58.08;97816.35;220888;1273;25265;-72
2022/04/23 20:53:45;;;;;;;59.90;37.30;;;;;;;7.43;58.59;97810.77;220604;1274;25260;-71
2022/04/23 20:58:49;;;;;;;64.40;42.30;;;;;;;7.30;59.33;97820.97;220611;1274;25255;-72
2022/04/23 21:03:53;;;;;;;69.10;41.20;;;;;;;7.17;59.38;97815.00;220232;1277;22611;-72
2022/04/23 21:08:59;;;;;;;58.90;35.50;;;;;;;7.05;59.68;97816.59;220608;1273;25317;-72
2022/04/23 21:14:02;;;;;;;49.30;31.00;;;;;;;6.96;59.86;97815.17;220684;1274;22568;-71
2022/04/23 21:19:10;;;;;;;45.00;29.40;;;;;;;6.87;60.05;97819.24;220488;1274;24230;-71
2022/04/23 21:24:16;;;;;;;47.20;29.80;;;;;;;6.81;60.33;97822.58;220713;1273;22556;-73
2022/04/23 21:29:20;;;;;;;42.60;27.60;;;;;;;6.77;60.49;97820.75;220726;1273;22591;-71
2022/04/23 21:34:24;;;;;;;41.30;26.50;;;;;;;6.75;60.75;97814.94;220426;1274;25546;-73
2022/04/23 21:39:28;;;;;;;43.30;29.10;;;;;;;6.74;61.09;97817.19;220257;1274;22588;-73
2022/04/23 21:44:50;;;;;;;44.50;27.90;;;;;;;6.70;61.09;97817.12;220242;1274;22709;-73
2022/04/23 21:50:13;;;;;;;43.80;27.30;;;;;;;6.66;61.37;97819.03;220643;1274;25349;-72
2022/04/23 21:55:17;;;;;;;43.30;28.00;;;;;;;6.63;61.53;97816.58;220672;1274;23243;-72
2022/04/23 22:00:28;;;;;;;42.00;27.20;;;;;;;6.61;61.79;97804.30;220770;1274;24237;-71
2022/04/23 22:05:30;;;;;;;44.50;25.90;;;;;;;6.60;61.92;97801.07;220845;1273;22577;-73
2022/04/23 22:10:43;;;;;;;41.40;27.00;;;;;;;6.57;62.06;97804.23;220856;1273;22580;-72
2022/04/23 22:15:51;;;;;;;38.20;24.70;;;;;;;6.50;62.07;97800.64;220663;1273;24391;-72
2022/04/23 22:20:54;;;;;;;40.00;26.60;;;;;;;6.43;62.48;97799.31;220468;1274;25251;-73
2022/04/23 22:26:06;;;;;;;37.80;24.20;;;;;;;6.36;62.38;97797.64;220815;1273;25378;-72
2022/04/23 22:31:11;;;;;;;40.60;25.40;;;;;;;6.28;62.63;97800.88;220621;1274;25522;-71
2022/04/23 22:36:17;;;;;;;41.80;26.20;;;;;;;6.23;62.81;97796.04;220210;1274;24652;-72
2022/04/23 22:41:20;;;;;;;38.80;25.20;;;;;;;6.21;63.12;97788.77;220365;1274;22630;-72
2022/04/23 22:46:22;;;;;;;40.80;27.10;;;;;;;6.20;63.08;97782.39;220481;1274;22566;-73
2022/04/23 22:51:24;;;;;;;39.90;27.70;;;;;;;6.20;63.29;97773.34;220522;1273;24311;-72
2022/04/23 22:56:40;;;;;;;39.40;24.80;;;;;;;6.20;63.43;97772.34;220250;1273;23718;-72
2022/04/23 23:02:06;;;;;;;39.80;25.00;;;;;;;6.20;63.54;97768.04;220422;1274;26579;-71
2022/04/23 23:07:13;;;;;;;33.60;22.30;;;;;;;6.19;63.58;97768.95;220827;1274;24241;-72
2022/04/23 23:12:21;;;;;;;34.30;22.50;;;;;;;6.16;63.66;97765.63;220670;1274;25369;-73
2022/04/23 23:17:25;;;;;;;43.00;25.20;;;;;;;6.13;64.00;97757.90;220796;1273;24235;-71
2022/04/23 23:22:27;;;;;;;41.90;26.40;;;;;;;6.08;64.31;97756.84;220485;1274;25434;-72
2022/04/23 23:27:36;;;;;;;43.20;28.00;;;;;;;5.99;64.26;97757.30;220591;1273;25069;-72
2022/04/23 23:32:38;;;;;;;43.70;28.00;;;;;;;5.87;64.39;97758.91;220238;1274;25374;-72
2022/04/23 23:37:47;;;;;;;45.40;29.00;;;;;;;5.78;64.54;97755.90;220201;1274;22691;-71
2022/04/23 23:42:50;;;;;;;50.70;30.90;;;;;;;5.71;64.80;97754.70;220047;1274;26115;-72
2022/04/23 23:47:52;;;;;;;45.50;28.90;;;;;;;5.66;65.52;97750.02;220146;1274;25489;-72
2022/04/23 23:52:55;;;;;;;41.20;26.30;;;;;;;5.61;65.49;97745.97;220429;1273;22613;-72
2022/04/23 23:58:15;;;;;;;40.20;25.00;;;;;;;5.57;65.86;97736.02;220743;1273;22582;-72
